createdAt,value
2022-10-21T00:01:00.459Z,95.38
2022-10-21T00:03:28.733Z,95.32
2022-10-21T00:05:56.710Z,93.97
2022-10-21T00:08:27.221Z,96.02
2022-10-21T00:10:56.536Z,95.27
2022-10-21T00:13:25.199Z,94.96
2022-10-21T00:16:02.284Z,95.74
2022-10-21T00:18:34.101Z,95.68
2022-10-21T00:21:02.205Z,94.43
2022-10-21T00:23:29.894Z,94.21
2022-10-21T00:25:58.376Z,93.86
2022-10-21T00:28:26.888Z,93.16
2022-10-21T00:30:57.939Z,93.02
2022-10-21T00:33:29.297Z,93.23
2022-10-21T00:36:02.932Z,93.79
2022-10-21T00:38:31.169Z,93.32
2022-10-21T00:40:59.320Z,92.34
2022-10-21T00:43:28.252Z,93.44
2022-10-21T00:46:00.661Z,92.90
2022-10-21T00:48:34.996Z,94.92
2022-10-21T00:51:07.864Z,94.70
2022-10-21T00:53:37.779Z,93.27
2022-10-21T00:56:14.104Z,92.57
2022-10-21T00:58:47.480Z,93.15
2022-10-21T01:01:19.150Z,93.22
2022-10-21T01:03:51.446Z,92.52
2022-10-21T01:06:21.670Z,92.51
2022-10-21T01:08:49.550Z,92.22
2022-10-21T01:11:20.327Z,92.23
2022-10-21T01:14:11.190Z,91.90
2022-10-21T01:16:48.261Z,91.22
2022-10-21T01:20:03.280Z,91.98
2022-10-21T01:22:52.158Z,92.13
2022-10-21T01:25:49.237Z,92.48
2022-10-21T01:28:29.048Z,92.03
2022-10-21T01:31:00.306Z,92.29
2022-10-21T01:33:43.913Z,92.12
2022-10-21T01:36:29.229Z,90.87
2022-10-21T01:39:18.922Z,91.78
2022-10-21T01:41:53.434Z,92.19
2022-10-21T01:44:28.870Z,92.81
2022-10-21T01:47:01.574Z,92.94
2022-10-21T01:49:33.155Z,92.28
2022-10-21T01:52:02.709Z,93.21
2022-10-21T01:54:34.788Z,93.00
2022-10-21T01:57:04.149Z,93.33
2022-10-21T01:59:33.747Z,92.99
2022-10-21T02:02:07.783Z,93.02
2022-10-21T02:04:37.346Z,93.71
2022-10-21T02:07:07.214Z,94.04
2022-10-21T02:09:34.932Z,93.70
2022-10-21T02:12:06.150Z,96.06
2022-10-21T02:14:37.673Z,96.71
2022-10-21T02:17:11.031Z,96.22
2022-10-21T02:19:38.836Z,95.89
2022-10-21T02:22:08.298Z,95.81
2022-10-21T02:24:43.180Z,96.89
2022-10-21T02:27:11.102Z,96.08
2022-10-21T02:29:43.229Z,96.06
2022-10-21T02:32:23.363Z,95.63
2022-10-21T02:35:14.095Z,95.44
2022-10-21T02:37:50.727Z,94.83
2022-10-21T02:40:22.059Z,94.46
2022-10-21T02:42:54.936Z,98.41
2022-10-21T02:45:23.670Z,99.16
2022-10-21T02:47:52.830Z,100.00
2022-10-21T02:50:21.339Z,100.00
2022-10-21T02:52:49.157Z,98.64
2022-10-21T02:55:17.206Z,97.21
2022-10-21T02:57:44.867Z,97.60
2022-10-21T03:00:14.203Z,97.68
2022-10-21T03:02:42.668Z,97.20
2022-10-21T03:05:12.901Z,98.24
2022-10-21T03:07:41.359Z,100.00
2022-10-21T03:10:10.081Z,97.32
2022-10-21T03:12:37.744Z,97.50
2022-10-21T03:15:06.019Z,96.66
2022-10-21T03:17:33.683Z,99.27
2022-10-21T03:20:03.491Z,97.31
2022-10-21T03:22:33.815Z,98.27
2022-10-21T03:25:01.514Z,97.09
2022-10-21T03:27:29.401Z,97.89
2022-10-21T03:29:57.087Z,97.37
2022-10-21T03:32:24.871Z,96.55
2022-10-21T03:34:52.994Z,96.59
2022-10-21T03:37:20.775Z,98.05
2022-10-21T03:39:49.940Z,99.09
2022-10-21T03:42:17.668Z,97.96
2022-10-21T03:44:45.356Z,98.01
2022-10-21T03:47:15.485Z,97.21
2022-10-21T03:49:43.222Z,96.71
2022-10-21T03:52:14.280Z,96.34
2022-10-21T03:54:42.028Z,98.24
2022-10-21T03:57:11.386Z,97.71
2022-10-21T03:59:39.305Z,97.40
2022-10-21T04:02:07.121Z,97.92
2022-10-21T04:04:34.929Z,98.65
2022-10-21T04:07:02.594Z,98.52
2022-10-21T04:09:30.299Z,98.08
2022-10-21T04:11:58.274Z,97.57
2022-10-21T04:14:27.469Z,96.98
2022-10-21T04:17:06.447Z,96.03
2022-10-21T04:19:35.024Z,95.40
2022-10-21T04:22:02.747Z,95.50
2022-10-21T04:24:30.612Z,95.69
2022-10-21T04:26:58.570Z,96.15
2022-10-21T04:29:27.611Z,95.67
2022-10-21T04:34:28.151Z,95.50
2022-10-21T04:36:57.914Z,94.69
2022-10-21T04:39:27.605Z,94.77
2022-10-21T04:41:55.948Z,94.55
2022-10-21T04:44:23.749Z,94.60
2022-10-21T04:46:52.815Z,94.00
2022-10-21T04:49:20.972Z,93.66
2022-10-21T04:51:48.729Z,93.84
2022-10-21T04:54:16.716Z,94.61
2022-10-21T04:56:44.555Z,94.55
2022-10-21T04:59:12.452Z,94.19
2022-10-21T05:01:42.329Z,94.99
2022-10-21T05:04:11.625Z,95.10
2022-10-21T05:06:39.429Z,94.82
2022-10-21T05:09:07.223Z,94.54
2022-10-21T05:11:35.005Z,94.32
2022-10-21T05:14:02.812Z,93.83
2022-10-21T05:16:30.988Z,93.62
2022-10-21T05:19:00.155Z,93.23
2022-10-21T05:21:29.479Z,93.14
2022-10-21T05:23:58.275Z,92.77
2022-10-21T05:26:26.072Z,93.15
2022-10-21T05:28:53.957Z,93.74
2022-10-21T05:31:21.740Z,95.65
2022-10-21T05:33:49.449Z,95.78
2022-10-21T05:36:18.506Z,96.42
2022-10-21T05:38:49.704Z,95.98
2022-10-21T05:41:17.443Z,95.89
2022-10-21T05:43:45.227Z,96.12
2022-10-21T05:46:15.162Z,98.08
2022-10-21T05:48:42.957Z,98.73
2022-10-21T05:51:10.763Z,100.00
2022-10-21T05:53:39.778Z,100.00
2022-10-21T05:56:11.667Z,100.00
2022-10-21T05:58:39.442Z,100.00
2022-10-21T06:01:07.485Z,100.00
2022-10-21T06:03:35.419Z,100.00
2022-10-21T06:06:08.113Z,100.00
2022-10-21T06:08:40.034Z,100.00
2022-10-21T06:11:09.748Z,100.00
2022-10-21T06:13:39.506Z,100.00
2022-10-21T06:16:08.865Z,100.00
2022-10-21T06:18:36.935Z,100.00
2022-10-21T06:21:05.218Z,100.00
2022-10-21T06:23:32.973Z,100.00
2022-10-21T06:26:02.840Z,100.00
2022-10-21T06:28:33.064Z,100.00
2022-10-21T06:31:02.356Z,100.00
2022-10-21T06:33:30.089Z,100.00
2022-10-21T06:35:58.108Z,99.54
2022-10-21T06:38:26.949Z,98.80
2022-10-21T06:41:01.452Z,98.38
2022-10-21T06:43:29.429Z,98.23
2022-10-21T06:46:02.497Z,99.35
2022-10-21T06:48:30.564Z,98.55
2022-10-21T06:51:02.310Z,98.66
2022-10-21T06:53:32.071Z,98.55
2022-10-21T06:56:03.014Z,98.65
2022-10-21T06:58:31.131Z,98.42
2022-10-21T07:00:58.931Z,98.73
2022-10-21T07:03:30.034Z,99.39
2022-10-21T07:06:01.517Z,98.91
2022-10-21T07:08:46.196Z,97.83
2022-10-21T07:11:15.725Z,97.58
2022-10-21T07:13:43.627Z,97.39
2022-10-21T07:16:25.868Z,97.61
2022-10-21T07:18:55.365Z,97.51
2022-10-21T07:21:25.712Z,98.04
2022-10-21T07:23:56.644Z,98.82
2022-10-21T07:26:28.893Z,98.21
2022-10-21T07:28:58.707Z,98.32
2022-10-21T07:31:26.944Z,98.37
2022-10-21T07:33:56.333Z,98.52
2022-10-21T07:36:26.384Z,98.96
2022-10-21T07:38:56.157Z,99.09
2022-10-21T07:41:26.471Z,98.47
2022-10-21T07:43:54.838Z,98.20
2022-10-21T07:46:23.769Z,97.35
2022-10-21T07:48:51.981Z,97.84
2022-10-21T07:51:27.040Z,97.58
2022-10-21T07:53:58.112Z,97.52
2022-10-21T07:56:28.436Z,97.07
2022-10-21T07:58:56.482Z,97.10
2022-10-21T08:01:24.711Z,97.75
2022-10-21T08:03:54.455Z,98.49
2022-10-21T08:06:25.760Z,99.98
2022-10-21T08:08:53.875Z,99.76
2022-10-21T08:11:23.052Z,99.95
2022-10-21T08:13:51.165Z,100.00
2022-10-21T08:16:19.008Z,100.00
2022-10-21T08:18:46.815Z,100.00
2022-10-21T08:21:14.732Z,100.00
2022-10-21T08:23:43.909Z,100.00
2022-10-21T08:26:14.321Z,100.00
2022-10-21T08:28:42.613Z,100.00
2022-10-21T08:31:12.504Z,100.00
2022-10-21T08:33:40.936Z,100.00
2022-10-21T08:36:14.294Z,100.00
2022-10-21T08:38:43.637Z,100.00
2022-10-21T08:41:22.404Z,100.00
2022-10-21T08:43:51.069Z,100.00
2022-10-21T08:46:23.562Z,99.24
2022-10-21T08:48:56.185Z,98.65
2022-10-21T08:51:28.008Z,98.38
2022-10-21T08:54:01.035Z,98.14
2022-10-21T08:56:32.185Z,100.00
2022-10-21T08:59:00.121Z,99.75
2022-10-21T09:01:33.963Z,98.76
2022-10-21T09:04:11.934Z,99.06
2022-10-21T09:06:50.391Z,100.00
2022-10-21T09:09:26.778Z,99.92
2022-10-21T09:12:04.989Z,100.00
2022-10-21T09:15:14.876Z,100.00
2022-10-21T09:17:53.470Z,100.00
2022-10-21T09:20:33.148Z,100.00
2022-10-21T09:23:12.101Z,98.90
2022-10-21T09:25:49.204Z,98.90
2022-10-21T09:28:17.770Z,98.19
2022-10-21T09:30:46.115Z,98.48
2022-10-21T09:33:24.275Z,97.71
2022-10-21T09:36:00.651Z,98.53
2022-10-21T09:38:34.747Z,98.91
2022-10-21T09:41:06.845Z,99.28
2022-10-21T09:43:34.611Z,97.75
2022-10-21T09:46:05.005Z,97.78
2022-10-21T09:49:08.126Z,97.64
2022-10-21T09:51:33.234Z,97.31
2022-10-21T09:54:08.884Z,97.36
2022-10-21T09:56:43.954Z,96.86
2022-10-21T09:59:13.354Z,96.22
2022-10-21T10:01:43.079Z,97.63
2022-10-21T10:04:12.772Z,97.36
2022-10-21T10:06:42.330Z,95.31
2022-10-21T10:09:16.367Z,94.61
2022-10-21T10:11:53.629Z,94.45
2022-10-21T10:14:30.429Z,94.75
2022-10-21T10:16:59.878Z,93.81
2022-10-21T10:19:29.430Z,92.59
2022-10-21T10:22:15.397Z,92.75
2022-10-21T10:24:44.545Z,93.69
2022-10-21T10:27:17.976Z,92.72
2022-10-21T10:29:53.331Z,92.54
2022-10-21T10:32:23.950Z,91.89
2022-10-21T10:34:57.178Z,91.70
2022-10-21T10:37:27.402Z,91.10
2022-10-21T10:39:59.063Z,91.61
2022-10-21T10:42:31.792Z,90.82
2022-10-21T10:45:05.117Z,91.60
2022-10-21T10:47:47.386Z,90.49
2022-10-21T10:50:46.751Z,90.37
2022-10-21T10:53:30.864Z,89.49
2022-10-21T10:56:07.077Z,90.96
2022-10-21T10:58:40.163Z,89.98
2022-10-21T11:01:14.514Z,89.98
2022-10-21T11:03:50.656Z,88.14
2022-10-21T11:06:22.740Z,88.56
2022-10-21T11:08:56.161Z,87.98
2022-10-21T11:11:27.818Z,86.89
2022-10-21T11:16:59.634Z,86.76
2022-10-21T11:19:35.241Z,86.83
2022-10-21T11:22:12.737Z,84.75
2022-10-21T11:24:55.391Z,85.40
2022-10-21T11:27:35.174Z,85.01
2022-10-21T11:30:10.545Z,84.14
2022-10-21T11:32:49.300Z,84.04
2022-10-21T11:35:21.765Z,82.16
2022-10-21T11:38:00.086Z,82.47
2022-10-21T11:40:33.896Z,83.91
2022-10-21T11:43:15.219Z,83.40
2022-10-21T11:45:54.851Z,81.62
2022-10-21T11:48:34.795Z,81.70
2022-10-21T11:51:16.590Z,81.50
2022-10-21T11:54:02.883Z,80.81
2022-10-21T11:56:39.786Z,81.28
2022-10-21T11:59:21.756Z,80.70
2022-10-21T12:02:01.695Z,80.27
2022-10-21T12:04:35.558Z,81.59
2022-10-21T12:07:13.766Z,80.88
2022-10-21T12:09:49.102Z,80.91
2022-10-21T12:12:21.538Z,80.88
2022-10-21T12:14:53.853Z,80.57
2022-10-21T12:17:24.593Z,79.92
2022-10-21T12:19:57.883Z,80.82
2022-10-21T12:22:28.183Z,80.22
2022-10-21T12:25:08.692Z,80.09
2022-10-21T12:27:45.324Z,79.77
2022-10-21T12:30:20.053Z,79.83
2022-10-21T12:33:13.251Z,79.49
2022-10-21T12:35:49.948Z,79.85
2022-10-21T12:38:23.965Z,79.77
2022-10-21T12:41:12.660Z,79.16
2022-10-21T12:43:40.735Z,79.11
2022-10-21T12:46:12.674Z,78.66
2022-10-21T12:48:47.020Z,78.82
2022-10-21T12:51:20.738Z,78.31
2022-10-21T12:56:30.635Z,78.73
2022-10-21T12:59:01.770Z,79.44
2022-10-21T13:01:46.248Z,79.09
2022-10-21T13:04:47.064Z,78.46
2022-10-21T13:08:10.906Z,78.27
2022-10-21T13:10:40.049Z,78.44
2022-10-21T13:13:30.892Z,77.76
2022-10-21T13:15:59.329Z,78.59
2022-10-21T13:18:58.662Z,77.95
2022-10-21T13:21:41.256Z,77.61
2022-10-21T13:24:27.952Z,77.56
2022-10-21T13:26:59.003Z,77.77
2022-10-21T13:29:34.246Z,77.96
2022-10-21T13:32:30.360Z,77.49
2022-10-21T13:35:02.650Z,77.85
2022-10-21T13:37:34.621Z,78.47
2022-10-21T13:40:05.206Z,78.58
2022-10-21T13:42:39.644Z,78.40
2022-10-21T13:45:22.097Z,78.78
2022-10-21T13:48:00.748Z,78.06
2022-10-21T13:50:30.862Z,78.00
2022-10-21T13:52:59.551Z,78.73
2022-10-21T13:55:27.782Z,79.19
2022-10-21T13:57:57.957Z,78.36
2022-10-21T14:00:28.901Z,78.62
2022-10-21T14:03:02.328Z,77.68
2022-10-21T14:05:39.577Z,78.10
2022-10-21T14:08:18.417Z,78.60
2022-10-21T14:10:47.777Z,78.09
2022-10-21T14:13:20.597Z,78.43
2022-10-21T14:15:49.113Z,77.67
2022-10-21T14:18:33.547Z,78.29
2022-10-21T14:21:06.259Z,78.59
2022-10-21T14:23:35.436Z,79.95
2022-10-21T14:26:07.654Z,79.25
2022-10-21T14:28:38.001Z,78.70
2022-10-21T14:33:39.313Z,77.97
2022-10-21T14:36:18.692Z,77.99
2022-10-21T14:39:00.394Z,78.64
2022-10-21T14:41:34.945Z,78.26
2022-10-21T14:44:14.504Z,78.40
2022-10-21T14:46:44.641Z,78.85
2022-10-21T14:49:23.673Z,77.73
2022-10-21T14:51:57.135Z,78.97
2022-10-21T14:54:30.119Z,80.06
2022-10-21T14:56:59.979Z,79.91
2022-10-21T14:59:38.169Z,80.02
2022-10-21T15:02:07.099Z,79.21
2022-10-21T15:04:44.211Z,79.65
2022-10-21T15:07:29.983Z,80.05
2022-10-21T15:10:17.661Z,80.17
2022-10-21T15:12:46.793Z,80.44
2022-10-21T15:15:54.122Z,79.75
2022-10-21T15:18:24.725Z,79.84
2022-10-21T15:20:58.668Z,80.29
2022-10-21T15:23:30.377Z,80.28
2022-10-21T15:26:01.302Z,79.92
2022-10-21T15:28:31.702Z,79.21
2022-10-21T15:31:02.448Z,79.29
2022-10-21T15:33:31.468Z,79.28
2022-10-21T15:36:04.194Z,79.11
2022-10-21T15:38:34.338Z,79.45
2022-10-21T15:41:02.760Z,80.06
2022-10-21T15:43:30.789Z,79.89
2022-10-21T15:46:00.169Z,79.65
2022-10-21T15:48:28.524Z,79.93
2022-10-21T15:50:57.907Z,80.08
2022-10-21T15:53:26.041Z,80.02
2022-10-21T15:55:55.320Z,79.87
2022-10-21T15:58:23.286Z,79.98
2022-10-21T16:00:51.565Z,80.31
2022-10-21T16:03:20.871Z,79.94
2022-10-21T16:05:48.851Z,79.65
2022-10-21T16:08:16.604Z,79.62
2022-10-21T16:10:47.901Z,79.40
2022-10-21T16:13:16.562Z,79.93
2022-10-21T16:15:44.331Z,79.63
2022-10-21T16:18:13.935Z,79.80
2022-10-21T16:20:44.217Z,79.32
2022-10-21T16:23:12.519Z,80.27
2022-10-21T16:25:40.638Z,80.16
2022-10-21T16:28:08.908Z,80.18
2022-10-21T16:30:39.223Z,79.52
2022-10-21T16:33:07.322Z,79.85
2022-10-21T16:35:35.085Z,79.51
2022-10-21T16:38:04.176Z,79.38
2022-10-21T16:40:36.146Z,79.69
2022-10-21T16:43:04.111Z,79.49
2022-10-21T16:45:33.554Z,79.37
2022-10-21T16:48:04.262Z,79.90
2022-10-21T16:50:39.367Z,80.34
2022-10-21T16:53:09.434Z,80.59
2022-10-21T16:55:37.188Z,80.13
2022-10-21T16:58:05.243Z,80.16
2022-10-21T17:00:33.048Z,79.71
2022-10-21T17:03:00.879Z,80.21
2022-10-21T17:05:28.654Z,79.71
2022-10-21T17:07:57.047Z,79.81
2022-10-21T17:10:26.264Z,79.70
2022-10-21T17:12:58.803Z,79.92
2022-10-21T17:15:28.257Z,78.41
2022-10-21T17:17:56.106Z,78.51
2022-10-21T17:20:24.115Z,77.55
2022-10-21T17:22:51.849Z,78.36
2022-10-21T17:25:19.659Z,78.10
2022-10-21T17:27:48.798Z,78.50
2022-10-21T17:30:16.731Z,78.44
2022-10-21T17:32:44.715Z,78.43
2022-10-21T17:35:18.629Z,78.19
2022-10-21T17:37:47.647Z,78.87
2022-10-21T17:40:20.831Z,79.50
2022-10-21T17:42:50.689Z,79.73
2022-10-21T17:45:19.915Z,79.15
2022-10-21T17:47:47.899Z,79.03
2022-10-21T17:50:23.456Z,78.96
2022-10-21T17:52:52.018Z,78.81
2022-10-21T17:55:20.088Z,78.94
2022-10-21T17:57:48.182Z,78.19
2022-10-21T18:00:17.504Z,78.53
2022-10-21T18:02:45.335Z,79.42
2022-10-21T18:05:20.599Z,78.92
2022-10-21T18:07:48.378Z,78.86
2022-10-21T18:10:16.299Z,78.80
2022-10-21T18:12:44.058Z,78.72
2022-10-21T18:15:13.871Z,78.06
2022-10-21T18:17:43.423Z,78.59
2022-10-21T18:20:12.019Z,78.75
2022-10-21T18:22:40.064Z,78.32
2022-10-21T18:25:08.659Z,78.55
2022-10-21T18:27:36.889Z,78.70
2022-10-21T18:30:05.716Z,78.69
2022-10-21T18:32:33.629Z,78.17
2022-10-21T18:35:03.038Z,77.93
2022-10-21T18:37:31.467Z,77.41
2022-10-21T18:39:59.210Z,78.81
2022-10-21T18:42:26.956Z,79.06
2022-10-21T18:44:54.664Z,79.15
2022-10-21T18:47:22.336Z,79.25
2022-10-21T18:49:52.225Z,79.08
2022-10-21T18:52:21.309Z,79.22
2022-10-21T18:54:51.532Z,79.67
2022-10-21T18:57:19.379Z,82.19
2022-10-21T18:59:47.271Z,82.58
2022-10-21T19:02:21.470Z,83.09
2022-10-21T19:04:51.720Z,83.67
2022-10-21T19:07:21.170Z,82.59
2022-10-21T19:09:49.026Z,81.82
2022-10-21T19:12:21.018Z,83.11
2022-10-21T19:14:53.326Z,82.67
2022-10-21T19:17:21.173Z,83.32
2022-10-21T19:19:48.927Z,83.24
2022-10-21T19:22:17.303Z,81.85
2022-10-21T19:24:46.529Z,81.68
2022-10-21T19:27:14.927Z,81.68
2022-10-21T19:29:43.435Z,82.61
2022-10-21T19:32:13.338Z,82.03
2022-10-21T19:34:41.086Z,81.97
2022-10-21T19:37:09.507Z,82.09
2022-10-21T19:39:37.280Z,82.09
2022-10-21T19:42:06.570Z,82.22
2022-10-21T19:44:34.278Z,82.48
2022-10-21T19:47:01.953Z,82.04
2022-10-21T19:49:33.080Z,83.00
2022-10-21T19:52:00.905Z,83.06
2022-10-21T19:54:28.604Z,82.50
2022-10-21T19:56:56.726Z,82.77
2022-10-21T19:59:25.967Z,82.95
2022-10-21T20:01:53.956Z,82.19
2022-10-21T20:04:22.649Z,82.76
2022-10-21T20:06:52.535Z,82.78
2022-10-21T20:09:20.322Z,81.97
2022-10-21T20:11:48.022Z,81.64
2022-10-21T20:14:15.855Z,82.33
2022-10-21T20:16:47.179Z,82.27
2022-10-21T20:19:15.314Z,81.96
2022-10-21T20:21:44.175Z,81.90
2022-10-21T20:24:14.825Z,81.14
2022-10-21T20:26:44.327Z,80.45
2022-10-21T20:29:13.142Z,79.99
2022-10-21T20:31:40.907Z,80.12
2022-10-21T20:34:12.513Z,80.00
2022-10-21T20:36:42.338Z,80.10
2022-10-21T20:39:11.891Z,80.19
2022-10-21T20:41:40.698Z,80.49
2022-10-21T20:44:12.186Z,80.65
2022-10-21T20:46:40.102Z,81.26
2022-10-21T20:49:08.365Z,80.90
2022-10-21T20:51:39.497Z,81.00
2022-10-21T20:54:09.212Z,80.83
2022-10-21T20:56:38.852Z,82.02
2022-10-21T20:59:08.910Z,82.08
2022-10-21T21:01:41.864Z,82.35
2022-10-21T21:04:11.932Z,82.76
2022-10-21T21:06:43.356Z,81.45
2022-10-21T21:14:31.714Z,82.22
2022-10-21T21:16:59.636Z,82.00
2022-10-21T21:19:27.559Z,83.17
2022-10-21T21:21:56.850Z,83.58
2022-10-21T21:24:24.676Z,84.19
2022-10-21T21:26:53.300Z,84.95
2022-10-21T21:29:21.060Z,84.86
2022-10-21T21:31:49.030Z,85.40
2022-10-21T21:34:17.255Z,85.24
2022-10-21T21:36:45.078Z,85.24
2022-10-21T21:41:42.892Z,85.69
2022-10-21T21:44:10.604Z,87.00
2022-10-21T21:46:38.369Z,89.79
2022-10-21T21:49:06.701Z,88.70
2022-10-21T21:51:36.135Z,86.90
2022-10-21T21:54:05.376Z,86.58
2022-10-21T21:56:35.468Z,86.41
2022-10-21T21:59:03.206Z,86.25
2022-10-21T22:01:31.128Z,87.66
2022-10-21T22:03:59.304Z,87.62
2022-10-21T22:06:30.739Z,87.43
2022-10-21T22:08:59.182Z,87.34
2022-10-21T22:11:29.113Z,87.62
2022-10-21T22:13:58.189Z,87.09
2022-10-21T22:16:29.996Z,86.34
2022-10-21T22:18:59.854Z,86.35
2022-10-21T22:21:28.405Z,87.75
2022-10-21T22:23:56.217Z,87.79
2022-10-21T22:26:26.553Z,87.01
2022-10-21T22:28:54.358Z,84.92
2022-10-21T22:31:29.523Z,85.49
2022-10-21T22:34:00.191Z,85.49
2022-10-21T22:36:28.667Z,84.94
2022-10-21T22:38:58.970Z,84.77
2022-10-21T22:41:26.927Z,85.36
2022-10-21T22:43:54.723Z,84.36
2022-10-21T22:46:34.185Z,84.13
2022-10-21T22:49:04.906Z,85.38
2022-10-21T22:51:32.970Z,84.87
2022-10-21T22:54:01.595Z,83.73
2022-10-21T22:56:29.982Z,84.86
2022-10-21T22:58:58.175Z,84.50
2022-10-21T23:01:28.851Z,85.10
2022-10-21T23:04:02.568Z,85.11
2022-10-21T23:06:32.402Z,85.34
2022-10-21T23:09:01.223Z,85.35
2022-10-21T23:11:29.779Z,86.69
2022-10-21T23:14:03.398Z,85.95
2022-10-21T23:16:35.524Z,85.86
2022-10-21T23:19:03.370Z,85.82
2022-10-21T23:21:32.502Z,86.21
2022-10-21T23:24:00.351Z,86.67
2022-10-21T23:26:28.165Z,87.10
2022-10-21T23:28:55.961Z,87.23
2022-10-21T23:31:23.844Z,88.89
2022-10-21T23:33:51.667Z,89.35
2022-10-21T23:36:19.392Z,88.37
2022-10-21T23:38:48.728Z,88.41
2022-10-21T23:41:16.576Z,87.53
2022-10-21T23:43:44.291Z,87.82
2022-10-21T23:46:12.006Z,87.63
2022-10-21T23:48:39.789Z,88.41
2022-10-21T23:51:07.589Z,88.54
2022-10-21T23:53:35.358Z,88.81
2022-10-21T23:56:04.940Z,88.51
2022-10-21T23:58:32.681Z,88.77
